Accueil
METAR-TAF:

METAR-TAF

Aéroports :

Smith Field

Siloam Springs, Arkansas, États-Unis

latitude: 36-12N, longitude: 094-29W, altitude: 300 m

Observation

Le bulletin a été fait il y a 1 heure et 1 minutes, à 20:56 UTC
Vent 15 kt de sud/sud-est avec des rafales jusqu'à 22 kt
Température 19°C
Humidité 52%
Pression 1013 hPa
Visibilité: 16.1 km
Quelques nuages à une hauteur de 11000 ft

METAR: KSLG 202056Z AUTO 15015G22KT 10SM FEW110 19/09 A2990 RMK AO2 SLP120 T01890094 56027 TSNO

Heure: 15:57 (21:57 UTC)


TAF: absent

Observations et prévisions météorologiques de plus de 4000 aéroports (messages METAR et TAF).

Les stations disponibles sont représentées par des disques jaunes et rouges sur la carte.

Passer la souris dessus pour voir le nom de la station.

Cliquer dessus pour voir les observations et prévisions météorologiques.

Pour changer de carte: cliquez sur les boutons verts avec une croix noire pour zoomer, sur le bouton vert avec un tiret pour effectuer un zoom arrière, ou sur les flèches vertes pour les cartes adjacentes.


METAR-TAF: